Time;durP1;ratioP1;P1;durP2;ratioP2;P2;SDS_P1;SDS_P2;PMS_P1;PMS_P2;Temp;Humidity;BMP_temperature;BMP_pressure;BME280_temperature;BME280_humidity;BME280_pressure;Samples;Min_cycle;Max_cycle;Signal;HPM_P1;HPM_P2
2019/10/12 00:00:19;;;;;;;2.9;1.8;;;;;;;;;;;;;
2019/10/12 00:02:43;;;;;;;3.7;2;;;;;;;;;;;;;
2019/10/12 00:05:08;;;;;;;5.6;3.4;;;;;;;;;;;;;
2019/10/12 00:07:34;;;;;;;8.6;3.6;;;;;;;;;;;;;
2019/10/12 00:10:07;;;;;;;6;3.4;;;;;;;;;;;;;
2019/10/12 00:14:51;;;;;;;6.2;4.1;;;;;;;;;;;;;
2019/10/12 00:17:23;;;;;;;6.5;4;;;;;;;;;;;;;
2019/10/12 00:19:39;;;;;;;7.3;4.4;;;;;;;;;;;;;
2019/10/12 00:22:04;;;;;;;6.7;4.2;;;;;;;;;;;;;
2019/10/12 00:24:29;;;;;;;7.4;4.6;;;;;;;;;;;;;
2019/10/12 00:26:54;;;;;;;8;4.4;;;;;;;;;;;;;
2019/10/12 00:29:19;;;;;;;7.9;4.5;;;;;;;;;;;;;
2019/10/12 00:31:45;;;;;;;6.4;4.1;;;;;;;;;;;;;
2019/10/12 00:34:10;;;;;;;6.1;3.9;;;;;;;;;;;;;
2019/10/12 00:36:35;;;;;;;8.1;3.6;;;;;;;;;;;;;
2019/10/12 00:39:00;;;;;;;6.3;3.5;;;;;;;;;;;;;
2019/10/12 00:41:25;;;;;;;4.8;3.4;;;;;;;;;;;;;
2019/10/12 00:43:50;;;;;;;6.9;3.7;;;;;;;;;;;;;
2019/10/12 00:46:15;;;;;;;4.7;3.2;;;;;;;;;;;;;
2019/10/12 00:48:40;;;;;;;5.2;3.1;;;;;;;;;;;;;
2019/10/12 00:51:05;;;;;;;5.3;3.2;;;;;;;;;;;;;
2019/10/12 00:53:30;;;;;;;4;3;;;;;;;;;;;;;
2019/10/12 00:55:55;;;;;;;5.6;2.9;;;;;;;;;;;;;
2019/10/12 00:58:20;;;;;;;4.3;3.1;;;;;;;;;;;;;
2019/10/12 01:00:45;;;;;;;6.3;3.2;;;;;;;;;;;;;
2019/10/12 01:03:10;;;;;;;4.8;2.7;;;;;;;;;;;;;
2019/10/12 01:05:36;;;;;;;5.5;2.9;;;;;;;;;;;;;
2019/10/12 01:08:01;;;;;;;5.1;2.9;;;;;;;;;;;;;
2019/10/12 01:10:26;;;;;;;5.7;2.9;;;;;;;;;;;;;
2019/10/12 01:12:51;;;;;;;5.8;2.9;;;;;;;;;;;;;
2019/10/12 01:15:16;;;;;;;3.8;2.7;;;;;;;;;;;;;
2019/10/12 01:17:41;;;;;;;4.7;2.8;;;;;;;;;;;;;
2019/10/12 01:20:06;;;;;;;4.5;2.9;;;;;;;;;;;;;
2019/10/12 01:22:31;;;;;;;6;3;;;;;;;;;;;;;
2019/10/12 01:24:56;;;;;;;3.5;2.5;;;;;;;;;;;;;
2019/10/12 01:27:21;;;;;;;5.7;3;;;;;;;;;;;;;
2019/10/12 01:29:46;;;;;;;5.7;2.7;;;;;;;;;;;;;
2019/10/12 01:32:11;;;;;;;6.8;2.8;;;;;;;;;;;;;
2019/10/12 01:34:36;;;;;;;4.3;2.6;;;;;;;;;;;;;
2019/10/12 01:37:02;;;;;;;5.2;2.6;;;;;;;;;;;;;
2019/10/12 01:39:27;;;;;;;5.1;2.4;;;;;;;;;;;;;
2019/10/12 01:41:52;;;;;;;6.3;2.6;;;;;;;;;;;;;
2019/10/12 01:44:17;;;;;;;7.7;2.7;;;;;;;;;;;;;
2019/10/12 01:46:42;;;;;;;4.4;2.8;;;;;;;;;;;;;
2019/10/12 01:49:07;;;;;;;4.7;2.6;;;;;;;;;;;;;
2019/10/12 01:51:32;;;;;;;4.5;2.5;;;;;;;;;;;;;
2019/10/12 01:53:57;;;;;;;3.8;2.5;;;;;;;;;;;;;
2019/10/12 01:56:22;;;;;;;5.1;2.8;;;;;;;;;;;;;
2019/10/12 01:58:47;;;;;;;6.5;2.7;;;;;;;;;;;;;
2019/10/12 02:01:12;;;;;;;4.4;3;;;;;;;;;;;;;
2019/10/12 02:03:38;;;;;;;4.2;2.7;;;;;;;;;;;;;
2019/10/12 02:06:03;;;;;;;3.9;2.5;;;;;;;;;;;;;
2019/10/12 02:10:54;;;;;;;6;2.7;;;;;;;;;;;;;
2019/10/12 02:13:18;;;;;;;3.4;2.2;;;;;;;;;;;;;
2019/10/12 02:15:43;;;;;;;5.4;2.4;;;;;;;;;;;;;
2019/10/12 02:18:08;;;;;;;4.6;2.3;;;;;;;;;;;;;
2019/10/12 02:20:33;;;;;;;4;2.5;;;;;;;;;;;;;
2019/10/12 02:22:58;;;;;;;4.5;2.3;;;;;;;;;;;;;
2019/10/12 02:25:23;;;;;;;4.2;2.5;;;;;;;;;;;;;
2019/10/12 02:27:48;;;;;;;4.3;2.5;;;;;;;;;;;;;
2019/10/12 02:30:13;;;;;;;2.7;2.3;;;;;;;;;;;;;
2019/10/12 02:32:38;;;;;;;5.3;2.7;;;;;;;;;;;;;
2019/10/12 02:35:03;;;;;;;3.6;2.3;;;;;;;;;;;;;
2019/10/12 02:37:29;;;;;;;3.9;2.3;;;;;;;;;;;;;
2019/10/12 02:39:54;;;;;;;3.6;2.3;;;;;;;;;;;;;
2019/10/12 02:42:19;;;;;;;3.3;2.2;;;;;;;;;;;;;
2019/10/12 02:44:44;;;;;;;3;2.2;;;;;;;;;;;;;
2019/10/12 02:47:09;;;;;;;3.6;2;;;;;;;;;;;;;
2019/10/12 02:49:34;;;;;;;3.5;2.1;;;;;;;;;;;;;
2019/10/12 02:51:59;;;;;;;3.9;1.9;;;;;;;;;;;;;
2019/10/12 02:54:25;;;;;;;3.1;2;;;;;;;;;;;;;
2019/10/12 02:56:50;;;;;;;3.7;1.9;;;;;;;;;;;;;
2019/10/12 02:59:15;;;;;;;4.1;1.9;;;;;;;;;;;;;
2019/10/12 03:01:40;;;;;;;3.6;2;;;;;;;;;;;;;
2019/10/12 03:04:05;;;;;;;3.1;1.9;;;;;;;;;;;;;
2019/10/12 03:06:30;;;;;;;3.6;2;;;;;;;;;;;;;
2019/10/12 03:08:55;;;;;;;3.7;2.2;;;;;;;;;;;;;
2019/10/12 03:11:20;;;;;;;3.3;1.8;;;;;;;;;;;;;
2019/10/12 03:13:45;;;;;;;2.7;1.7;;;;;;;;;;;;;
2019/10/12 03:16:10;;;;;;;3.1;1.7;;;;;;;;;;;;;
2019/10/12 03:18:35;;;;;;;4;1.6;;;;;;;;;;;;;
2019/10/12 03:21:00;;;;;;;3.2;1.6;;;;;;;;;;;;;
2019/10/12 03:23:25;;;;;;;2.9;1.7;;;;;;;;;;;;;
2019/10/12 03:25:50;;;;;;;2.2;1.7;;;;;;;;;;;;;
2019/10/12 03:28:16;;;;;;;4.5;1.7;;;;;;;;;;;;;
2019/10/12 03:30:41;;;;;;;3.9;1.7;;;;;;;;;;;;;
2019/10/12 03:33:06;;;;;;;2.7;1.5;;;;;;;;;;;;;
2019/10/12 03:35:31;;;;;;;4;1.7;;;;;;;;;;;;;
2019/10/12 03:37:56;;;;;;;4.1;1.6;;;;;;;;;;;;;
2019/10/12 03:40:21;;;;;;;3.5;1.7;;;;;;;;;;;;;
2019/10/12 03:42:46;;;;;;;2.6;1.8;;;;;;;;;;;;;
2019/10/12 03:45:11;;;;;;;4.3;1.6;;;;;;;;;;;;;
2019/10/12 03:47:36;;;;;;;3.6;1.5;;;;;;;;;;;;;
2019/10/12 03:50:01;;;;;;;3.3;1.4;;;;;;;;;;;;;
2019/10/12 03:52:26;;;;;;;3.1;1.9;;;;;;;;;;;;;
2019/10/12 03:54:52;;;;;;;3.6;1.5;;;;;;;;;;;;;
2019/10/12 03:57:17;;;;;;;3.8;1.6;;;;;;;;;;;;;
2019/10/12 03:59:42;;;;;;;2.5;1.4;;;;;;;;;;;;;
2019/10/12 04:02:28;;;;;;;2.8;1.5;;;;;;;9.57;82.2373;961.0524;;;;
2019/10/12 04:04:52;;;;;;;4;1.5;;;;;;;9.45;83.99414;961.0893;;;;
2019/10/12 04:07:17;;;;;;;2.3;1.5;;;;;;;9.56;80.80176;961.111;;;;
2019/10/12 04:09:42;;;;;;;2.9;1.5;;;;;;;9.73;78.75293;961.1039;;;;
2019/10/12 04:12:07;;;;;;;2.6;1.5;;;;;;;9.79;80.06445;961.1208;;;;
2019/10/12 04:14:33;;;;;;;2.6;1.5;;;;;;;9.63;81.69629;961.1117;;;;
2019/10/12 04:16:57;;;;;;;2.7;1.6;;;;;;;9.66;81.38281;961.1267;;;;
2019/10/12 04:19:23;;;;;;;3.7;1.6;;;;;;;9.63;81.53711;961.1255;;;;
2019/10/12 04:21:48;;;;;;;2.7;1.6;;;;;;;9.62;81.27148;961.1799;;;;
2019/10/12 04:24:13;;;;;;;2.6;1.6;;;;;;;9.53;83.46973;961.1013;;;;
2019/10/12 04:26:38;;;;;;;2.2;1.6;;;;;;;9.68;82.54492;961.1716;;;;
2019/10/12 04:29:03;;;;;;;2.9;1.6;;;;;;;9.64;81.57324;961.1878;;;;
2019/10/12 04:31:28;;;;;;;2.3;1.5;;;;;;;9.63;82.05371;961.1891;;;;
2019/10/12 04:33:53;;;;;;;3;1.7;;;;;;;9.53;81.41504;961.1426;;;;
2019/10/12 04:36:18;;;;;;;2.7;1.5;;;;;;;9.57;82.12402;961.1541;;;;
2019/10/12 04:38:43;;;;;;;2.5;1.5;;;;;;;9.59;82.88672;961.1467;;;;
2019/10/12 04:41:09;;;;;;;2.9;1.6;;;;;;;9.47;80.09473;961.1517;;;;
2019/10/12 04:43:34;;;;;;;3.1;1.6;;;;;;;9.58;80.28711;961.1635;;;;
2019/10/12 04:45:59;;;;;;;2.8;1.7;;;;;;;9.59;81.4043;961.1434;;;;
2019/10/12 04:48:24;;;;;;;3.7;1.5;;;;;;;9.58;80.36719;961.1685;;;;
2019/10/12 04:50:49;;;;;;;2.6;1.5;;;;;;;9.51;81.0332;961.1509;;;;
2019/10/12 04:53:14;;;;;;;2.8;1.8;;;;;;;9.48;82.12793;961.1372;;;;
2019/10/12 04:55:39;;;;;;;3.3;1.8;;;;;;;9.44;82.38574;961.1379;;;;
2019/10/12 04:58:04;;;;;;;3.6;2.3;;;;;;;9.42;82.10449;961.1495;;;;
2019/10/12 05:00:29;;;;;;;2.9;1.6;;;;;;;9.41;83.22754;961.1339;;;;
2019/10/12 05:02:55;;;;;;;3.4;1.6;;;;;;;9.4;82.23926;961.1394;;;;
2019/10/12 05:05:20;;;;;;;2.6;1.4;;;;;;;9.44;81.9375;961.1517;;;;
2019/10/12 05:07:45;;;;;;;3.2;1.8;;;;;;;9.4;82.94043;961.2281;;;;
2019/10/12 05:10:10;;;;;;;3.6;1.4;;;;;;;9.49;81.58008;961.1873;;;;
2019/10/12 05:12:35;;;;;;;3.1;1.4;;;;;;;9.59;81.02539;961.2256;;;;
2019/10/12 05:15:00;;;;;;;2;1.2;;;;;;;9.43;80.90137;961.2093;;;;
2019/10/12 05:17:25;;;;;;;4.1;1.5;;;;;;;9.3;81.60059;961.1976;;;;
2019/10/12 05:19:50;;;;;;;2.6;1.3;;;;;;;9.38;81.96191;961.2478;;;;
2019/10/12 05:22:15;;;;;;;3.2;1.1;;;;;;;9.32;82.29297;961.26;;;;
2019/10/12 05:24:40;;;;;;;3.2;1.5;;;;;;;9.34;81.2168;961.2614;;;;
2019/10/12 05:27:05;;;;;;;3.7;1.5;;;;;;;9.38;81.05469;961.2739;;;;
2019/10/12 05:29:31;;;;;;;2.4;1.4;;;;;;;9.35;80.33691;961.3178;;;;
2019/10/12 05:31:56;;;;;;;1.9;1.3;;;;;;;9.32;81.99609;961.3178;;;;
2019/10/12 05:34:21;;;;;;;2;1.4;;;;;;;9.31;80.7666;961.377;;;;
2019/10/12 05:36:46;;;;;;;2.2;1.4;;;;;;;9.38;80.58496;961.3828;;;;
2019/10/12 05:39:11;;;;;;;2.4;1.4;;;;;;;9.32;82.04004;961.3828;;;;
2019/10/12 05:41:36;;;;;;;3.2;1.2;;;;;;;9.35;79.46484;961.3942;;;;
2019/10/12 05:44:01;;;;;;;3.1;1.4;;;;;;;9.33;81.0332;961.4546;;;;
2019/10/12 05:46:26;;;;;;;3.7;1.3;;;;;;;9.41;80.81934;961.4414;;;;
2019/10/12 05:48:51;;;;;;;2.9;1.3;;;;;;;9.36;80.5791;961.4606;;;;
2019/10/12 05:51:17;;;;;;;4;1.5;;;;;;;9.47;80.07129;961.4519;;;;
2019/10/12 05:53:42;;;;;;;3;1.3;;;;;;;9.4;78.6123;961.4867;;;;
2019/10/12 05:56:07;;;;;;;2.3;1.5;;;;;;;9.45;80.34375;961.5172;;;;
2019/10/12 05:58:32;;;;;;;2.5;1.3;;;;;;;9.49;79.91602;961.5225;;;;
2019/10/12 06:00:57;;;;;;;2.5;1.5;;;;;;;9.46;79.85156;961.5737;;;;
2019/10/12 06:03:22;;;;;;;3.2;1.3;;;;;;;9.47;80.59961;961.5795;;;;
2019/10/12 06:05:48;;;;;;;3;1.5;;;;;;;9.52;79.77148;961.5753;;;;
2019/10/12 06:08:13;;;;;;;3.8;1.5;;;;;;;9.51;80.42383;961.5967;;;;
2019/10/12 06:10:39;;;;;;;2.8;1.4;;;;;;;9.48;80.1875;961.5976;;;;
2019/10/12 06:13:04;;;;;;;2.7;1.3;;;;;;;9.51;80.25195;961.5895;;;;
2019/10/12 06:15:50;;;;;;;3.6;1.6;;;;;;;9.48;80.51074;961.5948;;;;
2019/10/12 06:17:54;;;;;;;4;1.6;;;;;;;9.41;80.70215;961.6397;;;;
2019/10/12 06:20:19;;;;;;;2.9;1.5;;;;;;;9.49;80.66211;961.673;;;;
2019/10/12 06:22:44;;;;;;;3.7;1.5;;;;;;;9.41;80.2793;961.6926;;;;
2019/10/12 06:25:10;;;;;;;2.9;1.5;;;;;;;9.51;79.95215;961.7358;;;;
2019/10/12 06:27:36;;;;;;;3.7;1.8;;;;;;;9.58;80.28809;961.7054;;;;
2019/10/12 06:30:01;;;;;;;3.6;1.6;;;;;;;9.57;80.86035;961.7614;;;;
2019/10/12 06:32:26;;;;;;;2.1;1.6;;;;;;;9.59;79.92285;961.8406;;;;
2019/10/12 06:34:51;;;;;;;3.7;1.6;;;;;;;9.59;80.34766;961.8244;;;;
2019/10/12 06:37:16;;;;;;;5.1;1.6;;;;;;;9.65;80.61035;961.8122;;;;
2019/10/12 06:39:42;;;;;;;2.2;1.5;;;;;;;9.67;80.68359;961.8755;;;;
2019/10/12 06:42:07;;;;;;;3.8;1.6;;;;;;;9.69;79.5498;961.8984;;;;
2019/10/12 06:44:32;;;;;;;4.4;1.7;;;;;;;9.8;79.39941;961.8372;;;;
2019/10/12 06:46:57;;;;;;;2.8;1.4;;;;;;;9.86;79.48926;961.8322;;;;
2019/10/12 06:49:22;;;;;;;3;1.5;;;;;;;9.93;80.19238;961.776;;;;
2019/10/12 06:51:47;;;;;;;3.2;1.4;;;;;;;9.98;79.17773;961.827;;;;
2019/10/12 06:54:12;;;;;;;2.7;1.3;;;;;;;10.07;79.18262;961.8284;;;;
2019/10/12 06:56:37;;;;;;;3.4;1.9;;;;;;;10.06;79.25;961.8315;;;;
2019/10/12 06:59:02;;;;;;;3.9;1.9;;;;;;;10.11;79.99707;961.8915;;;;
2019/10/12 07:01:28;;;;;;;3.9;2.3;;;;;;;10.13;80.21777;961.9472;;;;
2019/10/12 07:03:53;;;;;;;4.3;2.1;;;;;;;10.18;80.55957;961.9469;;;;
2019/10/12 07:06:18;;;;;;;3.5;2.4;;;;;;;10.15;81.49707;962.0201;;;;
2019/10/12 07:08:44;;;;;;;3.4;2;;;;;;;10.21;81.6582;961.9988;;;;
2019/10/12 07:11:09;;;;;;;3.8;2;;;;;;;10.28;81.50977;961.9927;;;;
2019/10/12 07:13:34;;;;;;;5.8;2.2;;;;;;;10.39;80.63379;962.0239;;;;
2019/10/12 07:15:59;;;;;;;4.3;1.9;;;;;;;10.44;81.48242;962.0297;;;;
2019/10/12 07:18:25;;;;;;;3.6;1.8;;;;;;;10.52;78.62207;962.017;;;;
2019/10/12 07:20:50;;;;;;;3.3;1.7;;;;;;;10.71;77.26465;962.0192;;;;
2019/10/12 07:23:15;;;;;;;4.3;1.6;;;;;;;10.79;80.63867;962.0418;;;;
2019/10/12 07:25:40;;;;;;;3.2;1.7;;;;;;;10.96;78.34277;962.022;;;;
2019/10/12 07:28:06;;;;;;;3.5;1.7;;;;;;;11.03;78.11426;962.0356;;;;
2019/10/12 07:30:31;;;;;;;2.6;1.5;;;;;;;10.97;80.06445;962.0148;;;;
2019/10/12 07:32:56;;;;;;;3.1;1.5;;;;;;;11.24;78.47559;962.0245;;;;
2019/10/12 07:35:21;;;;;;;3.5;1.5;;;;;;;11.41;76.56934;962.01;;;;
2019/10/12 07:37:46;;;;;;;3.5;1.5;;;;;;;11.58;74.24609;962.091;;;;
2019/10/12 07:40:11;;;;;;;4.7;1.4;;;;;;;11.8;74.39941;962.113;;;;
2019/10/12 07:42:36;;;;;;;4.2;1.8;;;;;;;11.96;72.63672;962.1136;;;;
2019/10/12 07:45:02;;;;;;;4.2;1.4;;;;;;;12.13;71.9375;962.0913;;;;
2019/10/12 07:47:27;;;;;;;4.3;1.5;;;;;;;12.13;75.25195;962.1077;;;;
2019/10/12 07:49:52;;;;;;;2.8;1.5;;;;;;;12.09;75.91699;962.0842;;;;
2019/10/12 07:52:17;;;;;;;3;1.3;;;;;;;12.17;75.14453;962.1058;;;;
2019/10/12 07:54:42;;;;;;;4.5;1.7;;;;;;;12.29;74.08984;962.1298;;;;
2019/10/12 07:57:07;;;;;;;3.3;1.8;;;;;;;12.6;71.74805;962.1447;;;;
2019/10/12 07:59:33;;;;;;;5.5;1.7;;;;;;;12.9;70.72363;962.1721;;;;
2019/10/12 08:01:58;;;;;;;3.3;1.5;;;;;;;13.03;70.33887;962.1894;;;;
2019/10/12 08:04:23;;;;;;;3.7;1.6;;;;;;;13.01;71.92188;962.1824;;;;
2019/10/12 08:06:48;;;;;;;3.4;1.6;;;;;;;13.2;70.14551;962.2137;;;;
2019/10/12 08:09:13;;;;;;;5.3;1.7;;;;;;;13.23;70.4873;962.2084;;;;
2019/10/12 08:11:39;;;;;;;3.9;1.5;;;;;;;13.37;70.59082;962.2147;;;;
2019/10/12 08:14:04;;;;;;;3.5;1.7;;;;;;;13.64;69.38281;962.2065;;;;
2019/10/12 08:16:29;;;;;;;2.8;1.6;;;;;;;13.78;69.10254;962.1735;;;;
2019/10/12 08:18:54;;;;;;;3.9;1.7;;;;;;;14.01;68.47852;962.1873;;;;
2019/10/12 08:21:20;;;;;;;4.6;1.7;;;;;;;14.15;68.1875;962.2483;;;;
2019/10/12 08:23:45;;;;;;;5.2;1.7;;;;;;;14.24;68.22363;962.1593;;;;
2019/10/12 08:26:10;;;;;;;5.1;1.6;;;;;;;14.3;67.74707;962.1942;;;;
2019/10/12 08:28:35;;;;;;;5.2;1.6;;;;;;;14.48;67.49609;962.1564;;;;
2019/10/12 08:31:00;;;;;;;3.9;1.5;;;;;;;14.6;67.46777;962.179;;;;
2019/10/12 08:33:26;;;;;;;3.3;1.5;;;;;;;14.75;66.57227;962.1453;;;;
2019/10/12 08:35:51;;;;;;;5.8;1.6;;;;;;;14.75;67.09668;962.135;;;;
2019/10/12 08:38:16;;;;;;;4;1.7;;;;;;;14.67;68.32715;962.1458;;;;
2019/10/12 08:40:41;;;;;;;3.6;1.5;;;;;;;14.74;68.17578;962.1675;;;;
2019/10/12 08:43:07;;;;;;;3.7;1.7;;;;;;;15.06;66.42383;962.1655;;;;
2019/10/12 08:45:32;;;;;;;4.3;1.8;;;;;;;15.13;67.3291;962.1559;;;;
2019/10/12 08:47:57;;;;;;;2.4;1.6;;;;;;;15.03;68.34961;962.1333;;;;
2019/10/12 08:50:22;;;;;;;4.1;2.1;;;;;;;14.96;68.80371;962.1002;;;;
2019/10/12 08:52:47;;;;;;;4.4;1.6;;;;;;;15.14;66.49219;962.0889;;;;
2019/10/12 08:55:13;;;;;;;4.8;1.6;;;;;;;15.46;65.06348;962.091;;;;
2019/10/12 08:57:38;;;;;;;3.4;1.5;;;;;;;15.7;64.19141;962.0617;;;;
2019/10/12 09:00:03;;;;;;;4.7;1.4;;;;;;;15.64;64.33301;962.0193;;;;
2019/10/12 09:02:28;;;;;;;5.3;1.7;;;;;;;15.57;65.39355;962.0316;;;;
2019/10/12 09:04:54;;;;;;;3.7;1.4;;;;;;;15.46;67.75195;962.0187;;;;
2019/10/12 09:07:19;;;;;;;3.4;1.4;;;;;;;15.56;65.69629;962.0128;;;;
2019/10/12 09:09:44;;;;;;;3.5;1.6;;;;;;;16.18;62.57129;961.9866;;;;
2019/10/12 09:12:09;;;;;;;2.4;1.3;;;;;;;16.16;63.19727;961.9043;;;;
2019/10/12 09:14:34;;;;;;;2.6;1.4;;;;;;;16.23;63.30078;961.9272;;;;
2019/10/12 09:16:59;;;;;;;7.3;1.7;;;;;;;16.61;60.83594;961.9603;;;;
2019/10/12 09:19:24;;;;;;;4.6;1.6;;;;;;;16.54;61.60645;961.9075;;;;
2019/10/12 09:21:50;;;;;;;4.6;1.5;;;;;;;16.7;61.67578;961.9109;;;;
2019/10/12 09:24:15;;;;;;;3.4;1.1;;;;;;;16.84;59.61719;961.8978;;;;
2019/10/12 09:26:40;;;;;;;3.7;1.4;;;;;;;17.08;59.14648;961.9202;;;;
2019/10/12 09:29:05;;;;;;;3.6;1.4;;;;;;;17.1;58.57813;961.9869;;;;
2019/10/12 09:31:30;;;;;;;4.3;1.3;;;;;;;17.26;57.82813;961.9493;;;;
2019/10/12 09:33:55;;;;;;;4.3;1.6;;;;;;;17.18;58.6123;961.9761;;;;
2019/10/12 09:36:20;;;;;;;3.9;1.3;;;;;;;17.12;58.9541;961.9656;;;;
2019/10/12 09:38:45;;;;;;;3.4;1.4;;;;;;;17.06;59.22754;962.0472;;;;
2019/10/12 09:41:10;;;;;;;4.3;1.5;;;;;;;17.53;56.36621;962.003;;;;
2019/10/12 09:43:35;;;;;;;2.3;1.3;;;;;;;17.45;56.92969;961.9727;;;;
2019/10/12 09:46:00;;;;;;;2;1.2;;;;;;;17.52;56.69336;961.941;;;;
2019/10/12 09:48:25;;;;;;;4.9;1.6;;;;;;;17.62;56.12109;961.9495;;;;
2019/10/12 09:50:50;;;;;;;4.4;1.2;;;;;;;17.63;56.82422;961.8961;;;;
2019/10/12 09:53:15;;;;;;;3;1.5;;;;;;;17.56;57.34082;961.8419;;;;
2019/10/12 09:55:40;;;;;;;3.3;1.3;;;;;;;17.55;57.36328;961.8353;;;;
2019/10/12 09:58:05;;;;;;;4.8;1.5;;;;;;;17.62;57.46582;961.8045;;;;
2019/10/12 10:00:31;;;;;;;4;1.4;;;;;;;17.82;56.28711;961.7428;;;;
2019/10/12 10:02:56;;;;;;;3.1;1.3;;;;;;;17.88;56.06055;961.7178;;;;
2019/10/12 10:05:38;;;;;;;4.2;1.3;;;;;;;17.86;56.06934;961.7336;;;;
2019/10/12 10:07:46;;;;;;;3.6;1.1;;;;;;;18.14;54.86426;961.7061;;;;
2019/10/12 10:10:11;;;;;;;2.8;1.2;;;;;;;18.2;54.73145;961.699;;;;
2019/10/12 10:12:36;;;;;;;2.6;1.3;;;;;;;18.44;53.16602;961.6824;;;;
2019/10/12 10:15:01;;;;;;;3.2;1.2;;;;;;;18.45;53.08594;961.698;;;;
2019/10/12 10:17:26;;;;;;;3.4;1.3;;;;;;;18.54;52.47461;961.6733;;;;
2019/10/12 10:19:52;;;;;;;3.2;1.3;;;;;;;18.45;53.84863;961.655;;;;
2019/10/12 10:22:17;;;;;;;2.3;1.3;;;;;;;18.42;53.66895;961.6783;;;;
2019/10/12 10:24:42;;;;;;;2.8;1.2;;;;;;;18.7;52.78711;961.6135;;;;
2019/10/12 10:27:07;;;;;;;2.9;1.3;;;;;;;18.87;52.46777;961.6301;;;;
2019/10/12 10:29:32;;;;;;;5.4;1.5;;;;;;;19.14;51.52539;961.6057;;;;
2019/10/12 10:31:58;;;;;;;2.9;1.3;;;;;;;19.14;51.34961;961.6147;;;;
2019/10/12 10:34:23;;;;;;;4;1.3;;;;;;;19.16;50.82422;961.6394;;;;
2019/10/12 10:36:48;;;;;;;5.3;1.3;;;;;;;19.23;50.12891;961.6908;;;;
2019/10/12 10:39:14;;;;;;;2.8;1.4;;;;;;;19.13;50.84473;961.624;;;;
2019/10/12 10:41:39;;;;;;;2.7;1.3;;;;;;;19.18;50.49902;961.6003;;;;
2019/10/12 10:44:04;;;;;;;2.2;1.3;;;;;;;19.11;49.80957;961.61;;;;
2019/10/12 10:46:29;;;;;;;3.2;1.3;;;;;;;19.14;50.79883;961.5923;;;;
2019/10/12 10:48:54;;;;;;;3;1.3;;;;;;;19.29;50.2168;961.5592;;;;
2019/10/12 10:51:19;;;;;;;4.5;1.3;;;;;;;19.07;51.8584;961.5776;;;;
2019/10/12 10:53:45;;;;;;;3.3;1.4;;;;;;;19.02;52.33301;961.626;;;;
2019/10/12 10:56:10;;;;;;;3.2;1.4;;;;;;;19.13;51.57129;961.5894;;;;
2019/10/12 10:58:35;;;;;;;3.2;1.4;;;;;;;19.37;50.21484;961.5608;;;;
2019/10/12 11:01:00;;;;;;;2.3;1.3;;;;;;;19.17;52.01074;961.5086;;;;
2019/10/12 11:03:26;;;;;;;2.8;1.5;;;;;;;19.14;53.43848;961.4387;;;;
2019/10/12 11:05:51;;;;;;;2.6;1.3;;;;;;;19.47;49.75488;961.4803;;;;
2019/10/12 11:08:16;;;;;;;3.9;1.4;;;;;;;19.4;50.20605;961.467;;;;
2019/10/12 11:10:41;;;;;;;3.3;1.5;;;;;;;19.38;50.15723;961.5047;;;;
2019/10/12 11:13:06;;;;;;;3.2;1.5;;;;;;;19.43;49.375;961.3692;;;;
2019/10/12 11:15:32;;;;;;;2.3;1.2;;;;;;;19.57;48.16992;961.3245;;;;
2019/10/12 11:17:57;;;;;;;4.3;1.3;;;;;;;19.55;47.90918;961.294;;;;
2019/10/12 11:20:22;;;;;;;2.7;1.3;;;;;;;19.38;49.53516;961.3052;;;;
2019/10/12 11:22:48;;;;;;;5.5;1.2;;;;;;;19.48;48.80469;961.205;;;;
2019/10/12 11:25:13;;;;;;;4.6;1.1;;;;;;;19.65;48.4248;961.2195;;;;
2019/10/12 11:27:38;;;;;;;2.1;1.2;;;;;;;19.59;49.69922;961.1735;;;;
2019/10/12 11:30:04;;;;;;;2.5;1.2;;;;;;;19.78;48.89844;961.2068;;;;
2019/10/12 11:32:29;;;;;;;3.7;1.1;;;;;;;19.81;47.83105;961.1801;;;;
2019/10/12 11:34:54;;;;;;;3.6;1.1;;;;;;;19.82;48.20801;961.2054;;;;
2019/10/12 11:37:19;;;;;;;2.1;1.2;;;;;;;19.99;47.65137;961.2353;;;;
2019/10/12 11:39:44;;;;;;;3.9;1.3;;;;;;;19.72;50.80664;961.1879;;;;
2019/10/12 11:42:09;;;;;;;2.4;1.3;;;;;;;19.91;47.9834;961.1364;;;;
2019/10/12 11:44:35;;;;;;;3.2;1.3;;;;;;;19.87;48.93066;961.127;;;;
2019/10/12 11:47:00;;;;;;;2.4;0.9;;;;;;;19.86;49.37695;961.1155;;;;
2019/10/12 11:49:25;;;;;;;2.1;1.2;;;;;;;19.75;49.79785;961.1603;;;;
2019/10/12 11:51:51;;;;;;;3;1.1;;;;;;;19.73;48.16406;961.181;;;;
2019/10/12 11:54:16;;;;;;;3.1;1.2;;;;;;;19.9;47.78125;961.1167;;;;
2019/10/12 11:56:41;;;;;;;3.2;1.1;;;;;;;19.69;49.29785;961.1372;;;;
2019/10/12 11:59:07;;;;;;;2.1;1;;;;;;;20.21;47.22754;961.1415;;;;
2019/10/12 12:01:32;;;;;;;2.5;1.1;;;;;;;20.54;46.87402;961.1156;;;;
2019/10/12 12:03:57;;;;;;;3.2;1.2;;;;;;;20.34;48.07715;961.1246;;;;
2019/10/12 12:06:22;;;;;;;6.8;1.4;;;;;;;20.17;48.3291;961.057;;;;
2019/10/12 12:08:47;;;;;;;2.3;1.1;;;;;;;20.43;49.45215;961.1124;;;;
2019/10/12 12:11:12;;;;;;;2;1;;;;;;;20.57;46.66602;961.0645;;;;
2019/10/12 12:13:38;;;;;;;3.9;1.1;;;;;;;20.56;49.43066;961.0666;;;;
2019/10/12 12:16:03;;;;;;;3.6;1.3;;;;;;;20.58;47.20801;961.014;;;;
2019/10/12 12:18:28;;;;;;;5;1.2;;;;;;;20.54;46.95605;961.0236;;;;
2019/10/12 12:20:53;;;;;;;3.6;1.2;;;;;;;20.75;47.47363;960.9841;;;;
2019/10/12 12:23:18;;;;;;;3.2;1.1;;;;;;;20.79;46.18262;960.9421;;;;
2019/10/12 12:25:43;;;;;;;3.2;1.3;;;;;;;20.48;51.3418;960.944;;;;
2019/10/12 12:28:09;;;;;;;3.7;1.2;;;;;;;20.66;46.82715;960.9372;;;;
2019/10/12 12:30:34;;;;;;;3.4;1.2;;;;;;;20.76;46.0957;960.936;;;;
2019/10/12 12:32:59;;;;;;;2.6;1.2;;;;;;;20.65;47.74512;960.9034;;;;
2019/10/12 12:35:24;;;;;;;2.6;1;;;;;;;21;45.82715;960.9067;;;;
2019/10/12 12:37:49;;;;;;;4.2;1.3;;;;;;;20.8;47.13672;960.8741;;;;
2019/10/12 12:40:14;;;;;;;2.4;1;;;;;;;20.73;46.98828;960.8669;;;;
2019/10/12 12:42:40;;;;;;;3.8;1.3;;;;;;;20.89;47.59473;960.8408;;;;
2019/10/12 12:45:05;;;;;;;2.4;1.1;;;;;;;20.95;47.02441;960.8214;;;;
2019/10/12 12:47:30;;;;;;;3.9;1.3;;;;;;;20.84;47.23633;960.7877;;;;
2019/10/12 12:49:56;;;;;;;5.5;1.2;;;;;;;20.91;47.7373;960.7997;;;;
2019/10/12 12:52:21;;;;;;;2.9;1.2;;;;;;;20.82;47.45801;960.8489;;;;
2019/10/12 12:54:46;;;;;;;3.4;1.3;;;;;;;20.78;47.61816;960.813;;;;
2019/10/12 12:57:12;;;;;;;3.6;1.3;;;;;;;20.69;47.92676;960.789;;;;
2019/10/12 12:59:37;;;;;;;4.9;1.4;;;;;;;20.8;48.35059;960.7928;;;;
2019/10/12 13:02:02;;;;;;;2;1.1;;;;;;;20.84;48.70898;960.7728;;;;
2019/10/12 13:04:27;;;;;;;4.4;1.3;;;;;;;20.87;47.10938;960.8395;;;;
2019/10/12 13:06:52;;;;;;;3.4;1.4;;;;;;;20.69;49.19824;960.8495;;;;
2019/10/12 13:09:17;;;;;;;4.4;1.4;;;;;;;20.7;48.77441;960.8552;;;;
2019/10/12 13:11:43;;;;;;;3.3;1.3;;;;;;;20.66;48.77148;960.927;;;;
2019/10/12 13:14:08;;;;;;;2.6;1.3;;;;;;;20.83;49.21387;960.8892;;;;
2019/10/12 13:16:33;;;;;;;3.6;1.2;;;;;;;21.01;47.08789;960.8707;;;;
2019/10/12 13:18:58;;;;;;;4.1;1.2;;;;;;;21.04;47.43359;960.88;;;;
2019/10/12 13:21:24;;;;;;;4.2;1.5;;;;;;;20.89;49.55078;960.8441;;;;
2019/10/12 13:23:49;;;;;;;3.6;1.3;;;;;;;20.98;48.24023;960.824;;;;
2019/10/12 13:26:15;;;;;;;2.3;1.3;;;;;;;20.79;50.01074;960.76;;;;
2019/10/12 13:28:40;;;;;;;6.3;3;;;;;;;20.78;49.23242;960.6771;;;;
2019/10/12 13:31:05;;;;;;;3.5;1.7;;;;;;;21.04;49.89746;960.6713;;;;
2019/10/12 13:33:30;;;;;;;3.6;1.5;;;;;;;21.05;48.05957;960.6569;;;;
2019/10/12 13:35:56;;;;;;;4;1.4;;;;;;;20.8;50.1416;960.7332;;;;
2019/10/12 13:38:21;;;;;;;2.3;1.3;;;;;;;20.53;51.25293;960.6984;;;;
2019/10/12 13:40:46;;;;;;;5;1.5;;;;;;;20.65;50.55957;960.6523;;;;
2019/10/12 13:43:11;;;;;;;5.2;1.5;;;;;;;20.83;49.35547;960.6547;;;;
2019/10/12 13:45:36;;;;;;;2.8;1.3;;;;;;;20.96;49.18164;960.6802;;;;
2019/10/12 13:48:01;;;;;;;3;1.3;;;;;;;20.98;51.77637;960.7146;;;;
2019/10/12 13:50:27;;;;;;;7.4;3.2;;;;;;;20.89;50.12793;960.7017;;;;
2019/10/12 13:52:52;;;;;;;6.6;4.9;;;;;;;20.75;50.26465;960.7291;;;;
2019/10/12 13:55:17;;;;;;;8.3;5.1;;;;;;;20.9;49.32813;960.7263;;;;
2019/10/12 13:57:43;;;;;;;6.7;4.8;;;;;;;20.68;51.92969;960.7266;;;;
2019/10/12 14:00:08;;;;;;;8.8;7.2;;;;;;;20.59;51.58984;960.7819;;;;
2019/10/12 14:02:33;;;;;;;14.1;12.1;;;;;;;21;49.40918;960.725;;;;
2019/10/12 14:04:58;;;;;;;9.5;7.1;;;;;;;20.84;50.16895;960.7166;;;;
2019/10/12 14:07:23;;;;;;;8;4.6;;;;;;;20.79;50.19922;960.697;;;;
2019/10/12 14:09:48;;;;;;;6.5;4.7;;;;;;;20.82;49.80273;960.7104;;;;
2019/10/12 14:12:14;;;;;;;9.1;3.4;;;;;;;20.84;50.16992;960.6842;;;;
2019/10/12 14:14:39;;;;;;;5.1;1.9;;;;;;;20.7;50.88379;960.682;;;;
2019/10/12 14:17:04;;;;;;;5.2;4.1;;;;;;;20.61;52.10938;960.6108;;;;
2019/10/12 14:19:29;;;;;;;5.1;3.4;;;;;;;20.53;52.57129;960.6356;;;;
2019/10/12 14:21:54;;;;;;;19.8;15.9;;;;;;;20.8;51.01367;960.6511;;;;
2019/10/12 14:24:20;;;;;;;10.4;6.1;;;;;;;20.91;50.49512;960.5784;;;;
2019/10/12 14:26:45;;;;;;;7.9;4.7;;;;;;;20.74;53.02051;960.5737;;;;
2019/10/12 14:29:10;;;;;;;13.5;9.8;;;;;;;20.91;51.04883;960.5331;;;;
2019/10/12 14:31:36;;;;;;;7.7;4.4;;;;;;;21.21;49.87012;960.5129;;;;
2019/10/12 14:34:01;;;;;;;10.1;5.4;;;;;;;20.93;51.16992;960.4804;;;;
2019/10/12 14:36:26;;;;;;;6.2;3.2;;;;;;;20.86;51.68066;960.5023;;;;
2019/10/12 14:38:52;;;;;;;8.3;3.8;;;;;;;20.8;51.94434;960.5286;;;;
2019/10/12 14:41:17;;;;;;;7.7;4;;;;;;;20.64;53.72754;960.4796;;;;
2019/10/12 14:43:42;;;;;;;14.7;8.3;;;;;;;20.7;52.34375;960.4583;;;;
2019/10/12 14:46:07;;;;;;;8.4;5.8;;;;;;;20.64;52.41992;960.4611;;;;
2019/10/12 14:48:33;;;;;;;14.8;10.8;;;;;;;20.75;51.61914;960.4498;;;;
2019/10/12 14:50:58;;;;;;;6.7;4.9;;;;;;;20.81;52.27441;960.4197;;;;
2019/10/12 14:53:23;;;;;;;13.7;8.7;;;;;;;20.68;53.1543;960.4821;;;;
2019/10/12 14:55:48;;;;;;;8.9;5.2;;;;;;;20.53;53.34766;960.485;;;;
2019/10/12 14:58:13;;;;;;;9.7;7.9;;;;;;;20.34;54.7373;960.4945;;;;
2019/10/12 15:00:39;;;;;;;6.2;4;;;;;;;20.22;54.91113;960.4163;;;;
2019/10/12 15:03:04;;;;;;;4.7;2.4;;;;;;;20.31;54.4873;960.4628;;;;
2019/10/12 15:05:29;;;;;;;5.1;2.1;;;;;;;20.41;54.4873;960.4511;;;;
2019/10/12 15:07:54;;;;;;;4.9;1.7;;;;;;;20.3;54.69727;960.4771;;;;
2019/10/12 15:10:20;;;;;;;7.3;2;;;;;;;20.2;55.69727;960.4068;;;;
2019/10/12 15:12:45;;;;;;;4.4;1.9;;;;;;;20.04;56.5127;960.441;;;;
2019/10/12 15:15:10;;;;;;;5.2;2.1;;;;;;;19.95;56.94824;960.4689;;;;
2019/10/12 15:17:35;;;;;;;4.7;2;;;;;;;19.87;56.93652;960.4883;;;;
2019/10/12 15:20:00;;;;;;;4.5;2.1;;;;;;;19.98;57.28027;960.4816;;;;
2019/10/12 15:22:25;;;;;;;5.8;2.5;;;;;;;19.75;58.32031;960.5002;;;;
2019/10/12 15:24:51;;;;;;;5.7;2;;;;;;;19.93;57.33398;960.5105;;;;
2019/10/12 15:27:16;;;;;;;4.4;2;;;;;;;19.87;57.63086;960.5422;;;;
2019/10/12 15:29:41;;;;;;;5.9;2;;;;;;;19.69;58.68945;960.4928;;;;
2019/10/12 15:32:07;;;;;;;5.4;2.1;;;;;;;19.73;58.55371;960.508;;;;